sensor_id;sensor_type;location;lat;lon;timestamp;P1;durP1;ratioP1;P2;durP2;ratioP2
48092;SDS011;33873;47.442;18.902;2023-05-20T00:00:53;4.45;;;2.53;;
48092;SDS011;33873;47.442;18.902;2023-05-20T00:03:21;5.15;;;3.87;;
48092;SDS011;33873;47.442;18.902;2023-05-20T00:05:49;7.87;;;4.32;;
48092;SDS011;33873;47.442;18.902;2023-05-20T00:08:17;15.00;;;3.65;;
48092;SDS011;33873;47.442;18.902;2023-05-20T00:10:45;4.50;;;2.70;;
48092;SDS011;33873;47.442;18.902;2023-05-20T00:13:13;5.50;;;3.40;;
48092;SDS011;33873;47.442;18.902;2023-05-20T00:15:40;7.12;;;3.03;;
48092;SDS011;33873;47.442;18.902;2023-05-20T00:18:08;4.45;;;3.05;;
48092;SDS011;33873;47.442;18.902;2023-05-20T00:20:36;4.18;;;3.20;;
48092;SDS011;33873;47.442;18.902;2023-05-20T00:23:03;7.30;;;3.50;;
48092;SDS011;33873;47.442;18.902;2023-05-20T00:25:31;8.40;;;4.75;;
48092;SDS011;33873;47.442;18.902;2023-05-20T00:27:59;7.12;;;4.22;;
48092;SDS011;33873;47.442;18.902;2023-05-20T00:30:26;7.37;;;3.60;;
48092;SDS011;33873;47.442;18.902;2023-05-20T00:32:55;6.90;;;4.12;;
48092;SDS011;33873;47.442;18.902;2023-05-20T00:35:22;7.93;;;4.68;;
48092;SDS011;33873;47.442;18.902;2023-05-20T00:37:50;5.00;;;2.62;;
48092;SDS011;33873;47.442;18.902;2023-05-20T00:40:18;6.22;;;3.47;;
48092;SDS011;33873;47.442;18.902;2023-05-20T00:42:46;8.30;;;4.40;;
48092;SDS011;33873;47.442;18.902;2023-05-20T00:45:14;4.62;;;3.17;;
48092;SDS011;33873;47.442;18.902;2023-05-20T00:47:42;4.90;;;3.45;;
48092;SDS011;33873;47.442;18.902;2023-05-20T00:50:10;5.78;;;3.40;;
48092;SDS011;33873;47.442;18.902;2023-05-20T00:52:38;5.15;;;3.00;;
48092;SDS011;33873;47.442;18.902;2023-05-20T00:55:07;4.78;;;3.15;;
48092;SDS011;33873;47.442;18.902;2023-05-20T00:57:35;8.35;;;4.00;;
48092;SDS011;33873;47.442;18.902;2023-05-20T01:00:03;4.70;;;3.03;;
48092;SDS011;33873;47.442;18.902;2023-05-20T01:02:32;5.53;;;3.83;;
48092;SDS011;33873;47.442;18.902;2023-05-20T01:04:59;11.32;;;4.00;;
48092;SDS011;33873;47.442;18.902;2023-05-20T01:07:27;6.32;;;2.50;;
48092;SDS011;33873;47.442;18.902;2023-05-20T01:09:55;6.45;;;2.70;;
48092;SDS011;33873;47.442;18.902;2023-05-20T01:12:29;4.62;;;3.20;;
48092;SDS011;33873;47.442;18.902;2023-05-20T01:15:00;4.20;;;2.72;;
48092;SDS011;33873;47.442;18.902;2023-05-20T01:17:48;4.68;;;3.35;;
48092;SDS011;33873;47.442;18.902;2023-05-20T01:20:18;4.68;;;2.83;;
48092;SDS011;33873;47.442;18.902;2023-05-20T01:22:54;9.23;;;3.70;;
48092;SDS011;33873;47.442;18.902;2023-05-20T01:25:23;4.12;;;2.62;;
48092;SDS011;33873;47.442;18.902;2023-05-20T01:27:53;4.90;;;2.78;;
48092;SDS011;33873;47.442;18.902;2023-05-20T01:30:22;5.32;;;3.30;;
48092;SDS011;33873;47.442;18.902;2023-05-20T01:32:57;4.87;;;3.00;;
48092;SDS011;33873;47.442;18.902;2023-05-20T01:35:29;4.55;;;2.25;;
48092;SDS011;33873;47.442;18.902;2023-05-20T01:37:57;6.37;;;3.10;;
48092;SDS011;33873;47.442;18.902;2023-05-20T01:40:26;8.00;;;3.15;;
48092;SDS011;33873;47.442;18.902;2023-05-20T01:42:54;7.32;;;3.42;;
48092;SDS011;33873;47.442;18.902;2023-05-20T01:45:22;12.68;;;3.62;;
48092;SDS011;33873;47.442;18.902;2023-05-20T01:47:51;8.65;;;3.22;;
48092;SDS011;33873;47.442;18.902;2023-05-20T01:50:18;7.20;;;3.10;;
48092;SDS011;33873;47.442;18.902;2023-05-20T01:52:46;4.72;;;2.37;;
48092;SDS011;33873;47.442;18.902;2023-05-20T01:55:13;5.15;;;3.03;;
48092;SDS011;33873;47.442;18.902;2023-05-20T01:57:41;11.40;;;4.10;;
48092;SDS011;33873;47.442;18.902;2023-05-20T02:00:09;6.30;;;3.70;;
48092;SDS011;33873;47.442;18.902;2023-05-20T02:02:39;8.05;;;3.83;;
48092;SDS011;33873;47.442;18.902;2023-05-20T02:05:09;6.72;;;3.97;;
48092;SDS011;33873;47.442;18.902;2023-05-20T02:07:36;6.28;;;3.92;;
48092;SDS011;33873;47.442;18.902;2023-05-20T02:10:04;5.28;;;3.08;;
48092;SDS011;33873;47.442;18.902;2023-05-20T02:12:33;8.05;;;3.92;;
48092;SDS011;33873;47.442;18.902;2023-05-20T02:15:01;6.95;;;3.00;;
48092;SDS011;33873;47.442;18.902;2023-05-20T02:17:30;8.57;;;5.10;;
48092;SDS011;33873;47.442;18.902;2023-05-20T02:19:58;6.50;;;3.67;;
48092;SDS011;33873;47.442;18.902;2023-05-20T02:22:26;7.78;;;4.20;;
48092;SDS011;33873;47.442;18.902;2023-05-20T02:24:54;5.43;;;3.72;;
48092;SDS011;33873;47.442;18.902;2023-05-20T02:27:22;5.60;;;3.70;;
48092;SDS011;33873;47.442;18.902;2023-05-20T02:29:49;6.93;;;3.80;;
48092;SDS011;33873;47.442;18.902;2023-05-20T02:32:17;7.55;;;4.00;;
48092;SDS011;33873;47.442;18.902;2023-05-20T02:34:46;8.27;;;4.07;;
48092;SDS011;33873;47.442;18.902;2023-05-20T02:37:14;7.60;;;4.15;;
48092;SDS011;33873;47.442;18.902;2023-05-20T02:39:42;5.25;;;3.03;;
48092;SDS011;33873;47.442;18.902;2023-05-20T02:42:10;5.62;;;3.17;;
48092;SDS011;33873;47.442;18.902;2023-05-20T02:44:38;7.05;;;4.57;;
48092;SDS011;33873;47.442;18.902;2023-05-20T02:47:06;8.10;;;4.68;;
48092;SDS011;33873;47.442;18.902;2023-05-20T02:49:33;6.65;;;3.60;;
48092;SDS011;33873;47.442;18.902;2023-05-20T02:52:01;9.35;;;3.70;;
48092;SDS011;33873;47.442;18.902;2023-05-20T02:54:30;7.20;;;3.70;;
48092;SDS011;33873;47.442;18.902;2023-05-20T02:56:57;7.62;;;4.30;;
48092;SDS011;33873;47.442;18.902;2023-05-20T02:59:25;6.82;;;3.80;;
48092;SDS011;33873;47.442;18.902;2023-05-20T03:01:53;5.68;;;3.67;;
48092;SDS011;33873;47.442;18.902;2023-05-20T03:04:21;5.00;;;2.80;;
48092;SDS011;33873;47.442;18.902;2023-05-20T03:06:48;6.32;;;4.35;;
48092;SDS011;33873;47.442;18.902;2023-05-20T03:09:18;5.05;;;3.15;;
48092;SDS011;33873;47.442;18.902;2023-05-20T03:11:46;6.97;;;2.90;;
48092;SDS011;33873;47.442;18.902;2023-05-20T03:14:14;5.07;;;3.35;;
48092;SDS011;33873;47.442;18.902;2023-05-20T03:16:43;5.72;;;3.85;;
48092;SDS011;33873;47.442;18.902;2023-05-20T03:19:11;6.87;;;3.83;;
48092;SDS011;33873;47.442;18.902;2023-05-20T03:21:39;7.22;;;4.43;;
48092;SDS011;33873;47.442;18.902;2023-05-20T03:24:07;9.25;;;4.53;;
48092;SDS011;33873;47.442;18.902;2023-05-20T03:26:35;7.68;;;3.95;;
48092;SDS011;33873;47.442;18.902;2023-05-20T03:29:04;6.43;;;3.83;;
48092;SDS011;33873;47.442;18.902;2023-05-20T03:31:32;6.62;;;4.28;;
48092;SDS011;33873;47.442;18.902;2023-05-20T03:33:59;4.87;;;3.08;;
48092;SDS011;33873;47.442;18.902;2023-05-20T03:36:27;5.97;;;3.42;;
48092;SDS011;33873;47.442;18.902;2023-05-20T03:38:55;7.10;;;3.22;;
48092;SDS011;33873;47.442;18.902;2023-05-20T03:41:23;5.72;;;3.03;;
48092;SDS011;33873;47.442;18.902;2023-05-20T03:43:51;5.15;;;3.05;;
48092;SDS011;33873;47.442;18.902;2023-05-20T03:46:19;6.72;;;4.03;;
48092;SDS011;33873;47.442;18.902;2023-05-20T03:48:46;9.35;;;3.42;;
48092;SDS011;33873;47.442;18.902;2023-05-20T03:51:14;6.00;;;3.85;;
48092;SDS011;33873;47.442;18.902;2023-05-20T03:53:42;5.87;;;3.35;;
48092;SDS011;33873;47.442;18.902;2023-05-20T03:56:09;4.97;;;3.12;;
48092;SDS011;33873;47.442;18.902;2023-05-20T03:58:38;4.95;;;2.83;;
48092;SDS011;33873;47.442;18.902;2023-05-20T04:01:05;11.25;;;3.35;;
48092;SDS011;33873;47.442;18.902;2023-05-20T04:03:33;5.95;;;2.75;;
48092;SDS011;33873;47.442;18.902;2023-05-20T04:06:02;7.28;;;3.78;;
48092;SDS011;33873;47.442;18.902;2023-05-20T04:08:31;9.40;;;4.05;;
48092;SDS011;33873;47.442;18.902;2023-05-20T04:10:58;5.87;;;3.40;;
48092;SDS011;33873;47.442;18.902;2023-05-20T04:13:26;7.72;;;3.37;;
48092;SDS011;33873;47.442;18.902;2023-05-20T04:15:53;6.57;;;3.53;;
48092;SDS011;33873;47.442;18.902;2023-05-20T04:18:21;8.27;;;3.37;;
48092;SDS011;33873;47.442;18.902;2023-05-20T04:20:52;4.78;;;2.92;;
48092;SDS011;33873;47.442;18.902;2023-05-20T04:23:21;6.82;;;3.50;;
48092;SDS011;33873;47.442;18.902;2023-05-20T04:25:49;7.03;;;4.22;;
48092;SDS011;33873;47.442;18.902;2023-05-20T04:28:17;5.05;;;2.55;;
48092;SDS011;33873;47.442;18.902;2023-05-20T04:30:45;5.30;;;3.22;;
48092;SDS011;33873;47.442;18.902;2023-05-20T04:33:12;7.35;;;3.62;;
48092;SDS011;33873;47.442;18.902;2023-05-20T04:35:41;6.75;;;4.03;;
48092;SDS011;33873;47.442;18.902;2023-05-20T04:38:09;7.78;;;3.58;;
48092;SDS011;33873;47.442;18.902;2023-05-20T04:40:38;6.43;;;3.25;;
48092;SDS011;33873;47.442;18.902;2023-05-20T04:43:06;4.68;;;3.28;;
48092;SDS011;33873;47.442;18.902;2023-05-20T04:45:34;5.30;;;3.20;;
48092;SDS011;33873;47.442;18.902;2023-05-20T04:48:02;6.28;;;3.42;;
48092;SDS011;33873;47.442;18.902;2023-05-20T04:50:35;7.80;;;3.30;;
48092;SDS011;33873;47.442;18.902;2023-05-20T04:53:06;5.62;;;2.97;;
48092;SDS011;33873;47.442;18.902;2023-05-20T04:55:34;12.93;;;2.80;;
48092;SDS011;33873;47.442;18.902;2023-05-20T04:58:03;4.18;;;2.72;;
48092;SDS011;33873;47.442;18.902;2023-05-20T05:00:32;6.82;;;3.78;;
48092;SDS011;33873;47.442;18.902;2023-05-20T05:02:59;4.62;;;2.97;;
48092;SDS011;33873;47.442;18.902;2023-05-20T05:05:27;5.35;;;3.62;;
48092;SDS011;33873;47.442;18.902;2023-05-20T05:07:55;5.78;;;3.75;;
48092;SDS011;33873;47.442;18.902;2023-05-20T05:10:22;9.05;;;5.07;;
48092;SDS011;33873;47.442;18.902;2023-05-20T05:12:51;5.78;;;2.80;;
48092;SDS011;33873;47.442;18.902;2023-05-20T05:15:19;4.80;;;3.10;;
48092;SDS011;33873;47.442;18.902;2023-05-20T05:17:46;9.07;;;3.25;;
48092;SDS011;33873;47.442;18.902;2023-05-20T05:20:14;5.37;;;3.03;;
48092;SDS011;33873;47.442;18.902;2023-05-20T05:22:42;7.93;;;3.12;;
48092;SDS011;33873;47.442;18.902;2023-05-20T05:25:10;8.68;;;3.97;;
48092;SDS011;33873;47.442;18.902;2023-05-20T05:27:38;10.73;;;3.65;;
48092;SDS011;33873;47.442;18.902;2023-05-20T05:30:07;5.45;;;3.03;;
48092;SDS011;33873;47.442;18.902;2023-05-20T05:32:35;5.30;;;2.92;;
48092;SDS011;33873;47.442;18.902;2023-05-20T05:35:03;6.53;;;3.30;;
48092;SDS011;33873;47.442;18.902;2023-05-20T05:37:34;8.90;;;3.83;;
48092;SDS011;33873;47.442;18.902;2023-05-20T05:40:03;6.28;;;3.47;;
48092;SDS011;33873;47.442;18.902;2023-05-20T05:42:30;5.75;;;3.95;;
48092;SDS011;33873;47.442;18.902;2023-05-20T05:44:58;6.25;;;3.70;;
48092;SDS011;33873;47.442;18.902;2023-05-20T05:47:26;5.05;;;3.33;;
48092;SDS011;33873;47.442;18.902;2023-05-20T05:49:59;6.00;;;3.62;;
48092;SDS011;33873;47.442;18.902;2023-05-20T05:52:27;7.12;;;3.37;;
48092;SDS011;33873;47.442;18.902;2023-05-20T05:54:55;6.37;;;3.90;;
48092;SDS011;33873;47.442;18.902;2023-05-20T05:57:23;6.43;;;4.18;;
48092;SDS011;33873;47.442;18.902;2023-05-20T05:59:52;6.75;;;3.78;;
48092;SDS011;33873;47.442;18.902;2023-05-20T06:02:20;9.98;;;4.37;;
48092;SDS011;33873;47.442;18.902;2023-05-20T06:04:49;12.65;;;4.40;;
48092;SDS011;33873;47.442;18.902;2023-05-20T06:07:16;8.82;;;3.92;;
48092;SDS011;33873;47.442;18.902;2023-05-20T06:09:44;9.48;;;4.28;;
48092;SDS011;33873;47.442;18.902;2023-05-20T06:12:12;10.55;;;3.97;;
48092;SDS011;33873;47.442;18.902;2023-05-20T06:14:40;8.40;;;3.62;;
48092;SDS011;33873;47.442;18.902;2023-05-20T06:17:08;6.07;;;3.95;;
48092;SDS011;33873;47.442;18.902;2023-05-20T06:19:36;6.45;;;3.85;;
48092;SDS011;33873;47.442;18.902;2023-05-20T06:22:04;10.90;;;5.37;;
48092;SDS011;33873;47.442;18.902;2023-05-20T06:24:32;6.68;;;3.80;;
48092;SDS011;33873;47.442;18.902;2023-05-20T06:27:01;6.55;;;4.55;;
48092;SDS011;33873;47.442;18.902;2023-05-20T06:29:29;6.03;;;4.07;;
48092;SDS011;33873;47.442;18.902;2023-05-20T06:31:57;7.43;;;4.25;;
48092;SDS011;33873;47.442;18.902;2023-05-20T06:34:25;8.02;;;4.50;;
48092;SDS011;33873;47.442;18.902;2023-05-20T06:36:52;10.82;;;5.35;;
48092;SDS011;33873;47.442;18.902;2023-05-20T06:39:20;8.13;;;4.22;;
48092;SDS011;33873;47.442;18.902;2023-05-20T06:41:48;7.32;;;4.30;;
48092;SDS011;33873;47.442;18.902;2023-05-20T06:44:17;5.32;;;3.33;;
48092;SDS011;33873;47.442;18.902;2023-05-20T06:46:48;10.48;;;4.85;;
48092;SDS011;33873;47.442;18.902;2023-05-20T06:49:16;12.07;;;3.55;;
48092;SDS011;33873;47.442;18.902;2023-05-20T06:51:44;6.07;;;3.62;;
48092;SDS011;33873;47.442;18.902;2023-05-20T06:54:11;7.35;;;4.12;;
48092;SDS011;33873;47.442;18.902;2023-05-20T06:56:40;7.35;;;4.12;;
48092;SDS011;33873;47.442;18.902;2023-05-20T06:59:08;9.80;;;5.18;;
48092;SDS011;33873;47.442;18.902;2023-05-20T07:01:36;11.23;;;4.87;;
48092;SDS011;33873;47.442;18.902;2023-05-20T07:04:04;7.57;;;4.78;;
48092;SDS011;33873;47.442;18.902;2023-05-20T07:06:32;8.68;;;4.40;;
48092;SDS011;33873;47.442;18.902;2023-05-20T07:09:00;13.15;;;4.95;;
48092;SDS011;33873;47.442;18.902;2023-05-20T07:11:28;5.85;;;3.85;;
48092;SDS011;33873;47.442;18.902;2023-05-20T07:13:55;7.37;;;4.53;;
48092;SDS011;33873;47.442;18.902;2023-05-20T07:16:23;6.10;;;3.83;;
48092;SDS011;33873;47.442;18.902;2023-05-20T07:18:52;9.50;;;5.35;;
48092;SDS011;33873;47.442;18.902;2023-05-20T07:21:19;7.37;;;5.40;;
48092;SDS011;33873;47.442;18.902;2023-05-20T07:23:48;8.25;;;4.93;;
48092;SDS011;33873;47.442;18.902;2023-05-20T07:26:16;10.27;;;5.68;;
48092;SDS011;33873;47.442;18.902;2023-05-20T07:28:44;8.10;;;3.90;;
48092;SDS011;33873;47.442;18.902;2023-05-20T07:31:14;9.57;;;4.28;;
48092;SDS011;33873;47.442;18.902;2023-05-20T07:33:41;9.10;;;4.68;;
48092;SDS011;33873;47.442;18.902;2023-05-20T07:36:09;6.22;;;4.25;;
48092;SDS011;33873;47.442;18.902;2023-05-20T07:38:38;9.05;;;5.43;;
48092;SDS011;33873;47.442;18.902;2023-05-20T07:41:07;8.60;;;4.87;;
48092;SDS011;33873;47.442;18.902;2023-05-20T07:43:35;8.25;;;4.15;;
48092;SDS011;33873;47.442;18.902;2023-05-20T07:46:03;10.23;;;5.45;;
48092;SDS011;33873;47.442;18.902;2023-05-20T07:48:30;10.32;;;5.50;;
48092;SDS011;33873;47.442;18.902;2023-05-20T07:50:58;10.63;;;3.90;;
48092;SDS011;33873;47.442;18.902;2023-05-20T07:53:26;10.70;;;3.95;;
48092;SDS011;33873;47.442;18.902;2023-05-20T07:55:54;8.40;;;5.37;;
48092;SDS011;33873;47.442;18.902;2023-05-20T07:58:23;13.15;;;5.25;;
48092;SDS011;33873;47.442;18.902;2023-05-20T08:00:51;7.93;;;4.65;;
48092;SDS011;33873;47.442;18.902;2023-05-20T08:03:19;11.23;;;5.68;;
48092;SDS011;33873;47.442;18.902;2023-05-20T08:05:48;8.18;;;5.30;;
48092;SDS011;33873;47.442;18.902;2023-05-20T08:08:17;12.90;;;6.62;;
48092;SDS011;33873;47.442;18.902;2023-05-20T08:10:46;8.77;;;5.22;;
48092;SDS011;33873;47.442;18.902;2023-05-20T08:13:13;6.30;;;4.25;;
48092;SDS011;33873;47.442;18.902;2023-05-20T08:15:41;7.12;;;4.78;;
48092;SDS011;33873;47.442;18.902;2023-05-20T08:18:09;9.10;;;4.90;;
48092;SDS011;33873;47.442;18.902;2023-05-20T08:20:37;12.52;;;4.37;;
48092;SDS011;33873;47.442;18.902;2023-05-20T08:23:05;8.95;;;5.05;;
48092;SDS011;33873;47.442;18.902;2023-05-20T08:25:32;7.95;;;4.85;;
48092;SDS011;33873;47.442;18.902;2023-05-20T08:28:01;7.97;;;4.75;;
48092;SDS011;33873;47.442;18.902;2023-05-20T08:30:30;9.48;;;4.35;;
48092;SDS011;33873;47.442;18.902;2023-05-20T08:32:58;10.82;;;4.15;;
48092;SDS011;33873;47.442;18.902;2023-05-20T08:35:27;9.73;;;4.95;;
48092;SDS011;33873;47.442;18.902;2023-05-20T08:37:54;6.65;;;3.95;;
48092;SDS011;33873;47.442;18.902;2023-05-20T08:40:22;8.90;;;5.03;;
48092;SDS011;33873;47.442;18.902;2023-05-20T08:42:50;9.73;;;3.70;;
48092;SDS011;33873;47.442;18.902;2023-05-20T08:45:21;8.45;;;4.30;;
48092;SDS011;33873;47.442;18.902;2023-05-20T08:47:54;6.57;;;4.53;;
48092;SDS011;33873;47.442;18.902;2023-05-20T08:50:22;8.77;;;4.90;;
48092;SDS011;33873;47.442;18.902;2023-05-20T08:52:49;8.43;;;4.70;;
48092;SDS011;33873;47.442;18.902;2023-05-20T08:55:22;11.05;;;5.80;;
48092;SDS011;33873;47.442;18.902;2023-05-20T09:00:21;8.27;;;4.62;;
48092;SDS011;33873;47.442;18.902;2023-05-20T09:02:53;13.02;;;3.90;;
48092;SDS011;33873;47.442;18.902;2023-05-20T09:05:24;7.68;;;4.10;;
48092;SDS011;33873;47.442;18.902;2023-05-20T09:07:52;7.65;;;4.55;;
48092;SDS011;33873;47.442;18.902;2023-05-20T09:10:19;8.45;;;5.60;;
48092;SDS011;33873;47.442;18.902;2023-05-20T09:12:47;5.62;;;4.00;;
48092;SDS011;33873;47.442;18.902;2023-05-20T09:15:15;9.20;;;5.20;;
48092;SDS011;33873;47.442;18.902;2023-05-20T09:17:42;7.22;;;4.60;;
48092;SDS011;33873;47.442;18.902;2023-05-20T09:20:10;7.95;;;4.97;;
48092;SDS011;33873;47.442;18.902;2023-05-20T09:22:38;14.52;;;5.72;;
48092;SDS011;33873;47.442;18.902;2023-05-20T09:25:06;10.10;;;6.37;;
48092;SDS011;33873;47.442;18.902;2023-05-20T09:27:34;9.05;;;4.53;;
48092;SDS011;33873;47.442;18.902;2023-05-20T09:30:05;10.55;;;4.87;;
48092;SDS011;33873;47.442;18.902;2023-05-20T09:32:33;9.88;;;5.80;;
48092;SDS011;33873;47.442;18.902;2023-05-20T09:35:01;9.95;;;5.10;;
48092;SDS011;33873;47.442;18.902;2023-05-20T09:37:30;9.02;;;4.53;;
48092;SDS011;33873;47.442;18.902;2023-05-20T09:40:04;7.72;;;4.37;;
48092;SDS011;33873;47.442;18.902;2023-05-20T09:42:52;8.98;;;4.90;;
48092;SDS011;33873;47.442;18.902;2023-05-20T09:45:21;9.18;;;5.60;;
48092;SDS011;33873;47.442;18.902;2023-05-20T09:47:49;9.02;;;5.35;;
48092;SDS011;33873;47.442;18.902;2023-05-20T09:50:18;9.40;;;5.37;;
48092;SDS011;33873;47.442;18.902;2023-05-20T09:52:50;7.95;;;4.70;;
48092;SDS011;33873;47.442;18.902;2023-05-20T09:55:19;7.80;;;5.05;;
48092;SDS011;33873;47.442;18.902;2023-05-20T09:57:49;10.88;;;5.55;;
48092;SDS011;33873;47.442;18.902;2023-05-20T10:00:17;10.32;;;6.47;;
48092;SDS011;33873;47.442;18.902;2023-05-20T10:02:49;8.77;;;5.00;;
48092;SDS011;33873;47.442;18.902;2023-05-20T10:05:18;8.13;;;5.55;;
48092;SDS011;33873;47.442;18.902;2023-05-20T10:11:04;9.73;;;5.62;;
48092;SDS011;33873;47.442;18.902;2023-05-20T10:21:24;7.53;;;5.30;;
48092;SDS011;33873;47.442;18.902;2023-05-20T10:23:52;10.35;;;6.43;;
48092;SDS011;33873;47.442;18.902;2023-05-20T10:26:20;13.35;;;6.55;;
48092;SDS011;33873;47.442;18.902;2023-05-20T10:28:48;8.00;;;5.25;;
48092;SDS011;33873;47.442;18.902;2023-05-20T10:31:19;7.65;;;5.37;;
48092;SDS011;33873;47.442;18.902;2023-05-20T10:33:47;10.60;;;6.35;;
48092;SDS011;33873;47.442;18.902;2023-05-20T10:36:21;9.98;;;6.82;;
48092;SDS011;33873;47.442;18.902;2023-05-20T10:41:27;10.93;;;8.00;;
48092;SDS011;33873;47.442;18.902;2023-05-20T10:44:02;9.50;;;6.18;;
48092;SDS011;33873;47.442;18.902;2023-05-20T10:46:31;12.40;;;5.87;;
48092;SDS011;33873;47.442;18.902;2023-05-20T10:49:19;10.27;;;7.00;;
48092;SDS011;33873;47.442;18.902;2023-05-20T10:51:53;9.25;;;6.20;;
48092;SDS011;33873;47.442;18.902;2023-05-20T10:54:21;9.10;;;6.28;;
48092;SDS011;33873;47.442;18.902;2023-05-20T10:56:50;9.25;;;4.95;;
48092;SDS011;33873;47.442;18.902;2023-05-20T10:59:19;9.85;;;5.90;;
48092;SDS011;33873;47.442;18.902;2023-05-20T11:01:50;10.38;;;6.72;;
48092;SDS011;33873;47.442;18.902;2023-05-20T11:04:17;10.93;;;7.18;;
48092;SDS011;33873;47.442;18.902;2023-05-20T11:06:49;9.50;;;6.10;;
48092;SDS011;33873;47.442;18.902;2023-05-20T11:09:19;9.40;;;6.55;;
48092;SDS011;33873;47.442;18.902;2023-05-20T11:11:48;9.18;;;6.25;;
48092;SDS011;33873;47.442;18.902;2023-05-20T11:14:17;8.40;;;5.55;;
48092;SDS011;33873;47.442;18.902;2023-05-20T11:16:49;9.77;;;5.18;;
48092;SDS011;33873;47.442;18.902;2023-05-20T11:19:19;9.45;;;5.75;;
48092;SDS011;33873;47.442;18.902;2023-05-20T11:21:47;9.18;;;6.35;;
48092;SDS011;33873;47.442;18.902;2023-05-20T11:24:22;11.50;;;6.50;;
48092;SDS011;33873;47.442;18.902;2023-05-20T11:26:54;8.82;;;5.62;;
48092;SDS011;33873;47.442;18.902;2023-05-20T11:29:22;7.57;;;4.40;;
48092;SDS011;33873;47.442;18.902;2023-05-20T11:31:49;8.27;;;5.18;;
48092;SDS011;33873;47.442;18.902;2023-05-20T11:34:19;8.00;;;4.60;;
48092;SDS011;33873;47.442;18.902;2023-05-20T11:36:56;11.07;;;4.87;;
48092;SDS011;33873;47.442;18.902;2023-05-20T11:39:27;11.25;;;6.07;;
48092;SDS011;33873;47.442;18.902;2023-05-20T11:41:56;9.60;;;6.72;;
48092;SDS011;33873;47.442;18.902;2023-05-20T11:44:24;8.88;;;6.22;;
48092;SDS011;33873;47.442;18.902;2023-05-20T11:46:58;14.35;;;7.10;;
48092;SDS011;33873;47.442;18.902;2023-05-20T11:49:26;10.10;;;6.43;;
48092;SDS011;33873;47.442;18.902;2023-05-20T11:51:55;10.82;;;6.60;;
48092;SDS011;33873;47.442;18.902;2023-05-20T11:54:23;8.90;;;5.22;;
48092;SDS011;33873;47.442;18.902;2023-05-20T11:56:52;6.37;;;4.50;;
48092;SDS011;33873;47.442;18.902;2023-05-20T11:59:22;8.65;;;6.43;;
48092;SDS011;33873;47.442;18.902;2023-05-20T12:01:50;9.10;;;6.35;;
48092;SDS011;33873;47.442;18.902;2023-05-20T12:04:17;9.23;;;5.43;;
48092;SDS011;33873;47.442;18.902;2023-05-20T12:06:45;10.68;;;7.00;;
48092;SDS011;33873;47.442;18.902;2023-05-20T12:09:13;9.48;;;5.40;;
48092;SDS011;33873;47.442;18.902;2023-05-20T12:11:41;9.50;;;5.70;;
48092;SDS011;33873;47.442;18.902;2023-05-20T12:14:10;8.73;;;5.60;;
48092;SDS011;33873;47.442;18.902;2023-05-20T12:16:38;10.85;;;7.05;;
48092;SDS011;33873;47.442;18.902;2023-05-20T12:19:06;8.95;;;5.55;;
48092;SDS011;33873;47.442;18.902;2023-05-20T12:21:34;11.40;;;6.03;;
48092;SDS011;33873;47.442;18.902;2023-05-20T12:24:02;8.35;;;4.93;;
48092;SDS011;33873;47.442;18.902;2023-05-20T12:26:33;9.70;;;6.07;;
48092;SDS011;33873;47.442;18.902;2023-05-20T12:29:01;8.80;;;6.18;;
48092;SDS011;33873;47.442;18.902;2023-05-20T12:31:29;10.25;;;6.18;;
48092;SDS011;33873;47.442;18.902;2023-05-20T12:34:00;11.73;;;7.25;;
48092;SDS011;33873;47.442;18.902;2023-05-20T12:36:27;9.20;;;6.40;;
48092;SDS011;33873;47.442;18.902;2023-05-20T12:38:55;8.27;;;5.57;;
48092;SDS011;33873;47.442;18.902;2023-05-20T12:41:23;10.07;;;5.93;;
48092;SDS011;33873;47.442;18.902;2023-05-20T12:43:50;10.05;;;6.28;;
48092;SDS011;33873;47.442;18.902;2023-05-20T12:46:18;10.13;;;6.93;;
48092;SDS011;33873;47.442;18.902;2023-05-20T12:48:46;10.30;;;5.65;;
48092;SDS011;33873;47.442;18.902;2023-05-20T12:51:14;9.80;;;5.82;;
48092;SDS011;33873;47.442;18.902;2023-05-20T12:53:42;8.18;;;5.55;;
48092;SDS011;33873;47.442;18.902;2023-05-20T12:56:09;7.07;;;5.32;;
48092;SDS011;33873;47.442;18.902;2023-05-20T12:58:37;12.85;;;5.03;;
48092;SDS011;33873;47.442;18.902;2023-05-20T13:01:05;8.02;;;5.07;;
48092;SDS011;33873;47.442;18.902;2023-05-20T13:03:32;11.15;;;6.35;;
48092;SDS011;33873;47.442;18.902;2023-05-20T13:06:00;7.70;;;5.22;;
48092;SDS011;33873;47.442;18.902;2023-05-20T13:08:28;7.87;;;5.80;;
48092;SDS011;33873;47.442;18.902;2023-05-20T13:10:55;9.10;;;6.47;;
48092;SDS011;33873;47.442;18.902;2023-05-20T13:13:23;9.15;;;6.12;;
48092;SDS011;33873;47.442;18.902;2023-05-20T13:15:50;10.52;;;6.65;;
48092;SDS011;33873;47.442;18.902;2023-05-20T13:18:18;10.88;;;7.30;;
48092;SDS011;33873;47.442;18.902;2023-05-20T13:20:46;9.43;;;7.37;;
48092;SDS011;33873;47.442;18.902;2023-05-20T13:23:13;10.45;;;7.30;;
48092;SDS011;33873;47.442;18.902;2023-05-20T13:25:41;10.57;;;7.18;;
48092;SDS011;33873;47.442;18.902;2023-05-20T13:28:09;10.32;;;7.60;;
48092;SDS011;33873;47.442;18.902;2023-05-20T13:30:38;12.48;;;7.70;;
48092;SDS011;33873;47.442;18.902;2023-05-20T13:33:06;10.10;;;7.10;;
48092;SDS011;33873;47.442;18.902;2023-05-20T13:35:34;12.13;;;6.75;;
48092;SDS011;33873;47.442;18.902;2023-05-20T13:38:02;9.52;;;6.60;;
48092;SDS011;33873;47.442;18.902;2023-05-20T13:40:30;13.95;;;5.85;;
48092;SDS011;33873;47.442;18.902;2023-05-20T13:42:57;8.43;;;5.40;;
48092;SDS011;33873;47.442;18.902;2023-05-20T13:45:25;10.90;;;6.43;;
48092;SDS011;33873;47.442;18.902;2023-05-20T13:47:53;8.20;;;6.10;;
48092;SDS011;33873;47.442;18.902;2023-05-20T13:50:21;8.70;;;6.10;;
48092;SDS011;33873;47.442;18.902;2023-05-20T13:52:49;9.80;;;5.55;;
48092;SDS011;33873;47.442;18.902;2023-05-20T13:55:17;8.02;;;4.85;;
48092;SDS011;33873;47.442;18.902;2023-05-20T13:57:44;7.70;;;5.28;;
48092;SDS011;33873;47.442;18.902;2023-05-20T14:00:12;10.65;;;7.03;;
48092;SDS011;33873;47.442;18.902;2023-05-20T14:02:41;9.05;;;5.35;;
48092;SDS011;33873;47.442;18.902;2023-05-20T14:05:08;7.35;;;5.55;;
48092;SDS011;33873;47.442;18.902;2023-05-20T14:07:36;8.65;;;6.75;;
48092;SDS011;33873;47.442;18.902;2023-05-20T14:10:05;9.05;;;6.43;;
48092;SDS011;33873;47.442;18.902;2023-05-20T14:12:33;9.75;;;5.68;;
48092;SDS011;33873;47.442;18.902;2023-05-20T14:15:00;8.68;;;5.50;;
48092;SDS011;33873;47.442;18.902;2023-05-20T14:17:28;9.23;;;5.90;;
48092;SDS011;33873;47.442;18.902;2023-05-20T14:19:56;10.88;;;7.18;;
48092;SDS011;33873;47.442;18.902;2023-05-20T14:22:23;9.50;;;6.65;;
48092;SDS011;33873;47.442;18.902;2023-05-20T14:24:51;10.60;;;6.60;;
48092;SDS011;33873;47.442;18.902;2023-05-20T14:27:18;10.57;;;6.55;;
48092;SDS011;33873;47.442;18.902;2023-05-20T14:29:46;11.27;;;5.97;;
48092;SDS011;33873;47.442;18.902;2023-05-20T14:32:14;13.68;;;6.57;;
48092;SDS011;33873;47.442;18.902;2023-05-20T14:34:41;11.73;;;8.10;;
48092;SDS011;33873;47.442;18.902;2023-05-20T14:37:09;13.02;;;8.30;;
48092;SDS011;33873;47.442;18.902;2023-05-20T14:39:38;10.98;;;7.30;;
48092;SDS011;33873;47.442;18.902;2023-05-20T14:42:05;13.20;;;7.18;;
48092;SDS011;33873;47.442;18.902;2023-05-20T14:44:33;7.50;;;5.07;;
48092;SDS011;33873;47.442;18.902;2023-05-20T14:47:01;8.07;;;5.93;;
48092;SDS011;33873;47.442;18.902;2023-05-20T14:49:29;10.90;;;7.68;;
48092;SDS011;33873;47.442;18.902;2023-05-20T14:51:57;11.20;;;7.53;;
48092;SDS011;33873;47.442;18.902;2023-05-20T14:54:25;9.85;;;6.37;;